createdAt,value
2022-08-27T00:02:26.713Z,18.70
2022-08-27T00:05:17.732Z,18.60
2022-08-27T00:08:07.854Z,18.50
2022-08-27T00:10:55.373Z,18.50
2022-08-27T00:13:44.413Z,18.40
2022-08-27T00:16:32.802Z,18.40
2022-08-27T00:19:21.668Z,18.40
2022-08-27T00:22:10.887Z,18.40
2022-08-27T00:24:59.290Z,18.40
2022-08-27T00:27:47.137Z,18.40
2022-08-27T00:30:34.818Z,18.40
2022-08-27T00:33:24.060Z,18.30
2022-08-27T00:36:13.438Z,18.40
2022-08-27T00:39:00.951Z,18.40
2022-08-27T00:41:49.612Z,18.50
2022-08-27T00:44:39.193Z,18.60
2022-08-27T00:47:31.813Z,18.70
2022-08-27T00:50:30.197Z,18.70
2022-08-27T00:53:24.396Z,18.60
2022-08-27T00:56:19.187Z,18.50
2022-08-27T00:59:06.772Z,18.40
2022-08-27T01:02:13.068Z,18.30
2022-08-27T01:05:09.090Z,18.20
2022-08-27T01:08:06.631Z,18.20
2022-08-27T01:10:58.626Z,18.20
2022-08-27T01:13:59.688Z,18.20
2022-08-27T01:16:56.381Z,18.20
2022-08-27T01:19:58.822Z,18.20
2022-08-27T01:23:11.678Z,18.20
2022-08-27T01:26:02.162Z,18.30
2022-08-27T01:28:51.108Z,18.40
2022-08-27T01:31:39.372Z,18.50
2022-08-27T01:34:26.912Z,18.50
2022-08-27T01:37:23.626Z,18.60
2022-08-27T01:40:13.416Z,18.70
2022-08-27T01:43:02.127Z,18.70
2022-08-27T01:45:52.817Z,18.70
2022-08-27T01:48:40.467Z,18.60
2022-08-27T01:51:28.388Z,18.60
2022-08-27T01:54:15.932Z,18.60
2022-08-27T01:57:04.572Z,18.60
2022-08-27T01:59:52.188Z,18.50
2022-08-27T02:02:41.497Z,18.50
2022-08-27T02:05:30.707Z,18.50
2022-08-27T02:08:19.264Z,18.50
2022-08-27T02:11:08.463Z,18.50
2022-08-27T02:13:56.018Z,18.50
2022-08-27T02:16:52.118Z,18.50
2022-08-27T02:19:40.418Z,18.50
2022-08-27T02:22:28.634Z,18.40
2022-08-27T02:25:19.829Z,18.40
2022-08-27T02:28:08.635Z,18.40
2022-08-27T02:30:56.304Z,18.40
2022-08-27T02:33:44.632Z,18.40
2022-08-27T02:36:32.133Z,18.40
2022-08-27T02:39:20.554Z,18.40
2022-08-27T02:42:08.948Z,18.40
2022-08-27T02:44:56.448Z,18.40
2022-08-27T02:47:45.267Z,18.50
2022-08-27T02:50:32.808Z,18.50
2022-08-27T02:53:20.857Z,18.50
2022-08-27T02:56:08.607Z,18.50
2022-08-27T02:58:56.132Z,18.50
2022-08-27T03:01:43.995Z,18.50
2022-08-27T03:04:31.689Z,18.50
2022-08-27T03:07:19.644Z,18.50
2022-08-27T03:10:09.497Z,18.50
2022-08-27T03:12:57.735Z,18.50
2022-08-27T03:15:45.735Z,18.50
2022-08-27T03:18:34.487Z,18.50
2022-08-27T03:21:25.588Z,18.40
2022-08-27T03:24:14.845Z,18.40
2022-08-27T03:27:02.527Z,18.40
2022-08-27T03:29:50.053Z,18.40
2022-08-27T03:32:38.297Z,18.40
2022-08-27T03:35:26.001Z,18.40
2022-08-27T03:38:14.548Z,18.40
2022-08-27T03:41:03.732Z,18.40
2022-08-27T03:43:54.592Z,18.40
2022-08-27T03:46:42.217Z,18.40
2022-08-27T03:49:29.802Z,18.40
2022-08-27T03:52:20.834Z,18.40
2022-08-27T03:55:09.877Z,18.40
2022-08-27T03:57:57.463Z,18.40
2022-08-27T04:00:45.219Z,18.30
2022-08-27T04:03:33.855Z,18.30
2022-08-27T04:06:22.907Z,18.20
2022-08-27T04:09:10.455Z,18.20
2022-08-27T04:11:58.353Z,18.20
2022-08-27T04:14:46.017Z,18.20
2022-08-27T04:17:34.033Z,18.20
2022-08-27T04:20:36.713Z,18.10
2022-08-27T04:23:24.673Z,18.10
2022-08-27T04:26:12.698Z,18.10
2022-08-27T04:29:00.277Z,18.10
2022-08-27T04:31:48.133Z,18.00
2022-08-27T04:34:37.287Z,18.00
2022-08-27T04:37:26.766Z,18.00
2022-08-27T04:40:14.408Z,18.00
2022-08-27T04:43:02.033Z,18.00
2022-08-27T04:45:50.852Z,18.00
2022-08-27T04:48:38.589Z,18.10
2022-08-27T04:51:28.812Z,18.10
2022-08-27T04:54:17.184Z,18.10
2022-08-27T04:57:08.096Z,18.20
2022-08-27T04:59:57.037Z,18.20
2022-08-27T05:02:44.573Z,18.30
2022-08-27T05:05:32.104Z,18.40
2022-08-27T05:08:20.417Z,18.40
2022-08-27T05:11:13.113Z,18.50
2022-08-27T05:14:07.372Z,18.60
2022-08-27T05:16:54.923Z,18.60
2022-08-27T05:19:42.423Z,18.70
2022-08-27T05:22:29.937Z,18.70
2022-08-27T05:25:17.534Z,18.80
2022-08-27T05:28:05.083Z,18.90
2022-08-27T05:30:56.529Z,19.00
2022-08-27T05:33:45.237Z,19.10
2022-08-27T05:36:35.753Z,19.30
2022-08-27T05:39:23.435Z,19.50
2022-08-27T05:42:11.092Z,19.60
2022-08-27T05:44:59.312Z,19.70
2022-08-27T05:47:46.810Z,19.70
2022-08-27T05:50:34.702Z,19.90
2022-08-27T05:53:22.327Z,19.90
2022-08-27T05:56:26.257Z,19.90
2022-08-27T05:59:34.696Z,19.90
2022-08-27T06:02:22.996Z,19.90
2022-08-27T06:05:11.211Z,20.00
2022-08-27T06:07:58.727Z,20.00
2022-08-27T06:10:47.027Z,20.20
2022-08-27T06:13:36.401Z,20.40
2022-08-27T06:16:26.387Z,20.50
2022-08-27T06:19:14.279Z,20.60
2022-08-27T06:22:10.436Z,20.70
2022-08-27T06:24:58.916Z,20.90
2022-08-27T06:27:47.142Z,21.10
2022-08-27T06:30:35.523Z,21.20
2022-08-27T06:33:23.044Z,21.20
2022-08-27T06:36:14.954Z,21.20
2022-08-27T06:39:02.496Z,21.20
2022-08-27T06:41:53.192Z,21.20
2022-08-27T06:44:41.541Z,21.20
2022-08-27T06:47:33.123Z,21.30
2022-08-27T06:50:24.257Z,21.40
2022-08-27T06:53:15.247Z,21.60
2022-08-27T06:56:03.133Z,21.70
2022-08-27T06:58:56.699Z,21.70
2022-08-27T07:01:51.507Z,21.90
2022-08-27T07:04:39.237Z,22.10
2022-08-27T07:07:31.711Z,22.30
2022-08-27T07:10:24.862Z,22.60
2022-08-27T07:13:12.417Z,22.70
2022-08-27T07:16:04.002Z,22.60
2022-08-27T07:18:55.647Z,22.50
2022-08-27T07:21:43.148Z,22.50
2022-08-27T07:24:30.788Z,22.30
2022-08-27T07:27:18.386Z,22.30
2022-08-27T07:30:10.860Z,22.20
2022-08-27T07:32:58.312Z,22.40
2022-08-27T07:35:47.147Z,22.60
2022-08-27T07:38:36.853Z,22.70
2022-08-27T07:41:30.921Z,22.80
2022-08-27T07:44:26.047Z,22.80
2022-08-27T07:47:13.883Z,22.90
2022-08-27T07:50:01.613Z,22.80
2022-08-27T07:52:50.434Z,22.80
2022-08-27T07:55:39.567Z,22.70
2022-08-27T07:58:27.123Z,22.70
2022-08-27T08:01:14.751Z,22.60
2022-08-27T08:04:02.937Z,22.60
2022-08-27T08:06:51.813Z,22.50
2022-08-27T08:09:39.447Z,22.60
2022-08-27T08:12:27.338Z,22.50
2022-08-27T08:15:17.549Z,22.50
2022-08-27T08:18:05.212Z,22.70
2022-08-27T08:20:58.560Z,22.90
2022-08-27T08:23:48.987Z,23.10
2022-08-27T08:26:36.505Z,23.30
2022-08-27T08:29:24.083Z,23.40
2022-08-27T08:32:12.014Z,23.60
2022-08-27T08:35:00.283Z,23.60
2022-08-27T08:37:47.839Z,23.70
2022-08-27T08:40:50.469Z,23.80
2022-08-27T08:43:47.014Z,24.00
2022-08-27T08:46:48.394Z,24.20
2022-08-27T08:50:06.608Z,24.10
2022-08-27T08:53:09.692Z,23.90
2022-08-27T08:56:03.697Z,23.70
2022-08-27T08:59:21.355Z,23.60
2022-08-27T09:02:14.658Z,24.00
2022-08-27T09:05:10.168Z,24.40
2022-08-27T09:08:40.431Z,24.40
2022-08-27T09:11:59.513Z,24.60
2022-08-27T09:14:59.192Z,24.60
2022-08-27T09:17:49.006Z,24.50
2022-08-27T09:20:38.957Z,24.70
2022-08-27T09:23:29.149Z,24.90
2022-08-27T09:26:21.367Z,25.00
2022-08-27T09:29:16.002Z,25.00
2022-08-27T09:32:10.098Z,25.10
2022-08-27T09:35:01.617Z,25.20
2022-08-27T09:37:55.088Z,25.40
2022-08-27T09:40:50.996Z,25.20
2022-08-27T09:43:43.777Z,25.50
2022-08-27T09:46:31.342Z,25.70
2022-08-27T09:49:20.207Z,25.50
2022-08-27T09:52:08.717Z,25.80
2022-08-27T09:54:56.752Z,25.30
2022-08-27T09:57:44.375Z,25.10
2022-08-27T10:00:41.302Z,25.30
2022-08-27T10:03:33.195Z,25.10
2022-08-27T10:06:32.448Z,25.20
2022-08-27T10:09:33.379Z,25.00
2022-08-27T10:12:55.427Z,25.10
2022-08-27T10:16:12.534Z,25.30
2022-08-27T10:19:21.476Z,25.50
2022-08-27T10:22:33.117Z,25.30
2022-08-27T10:25:48.640Z,25.40
2022-08-27T10:28:54.318Z,25.70
2022-08-27T10:32:28.876Z,25.50
2022-08-27T10:35:34.174Z,25.40
2022-08-27T10:38:45.928Z,25.60
2022-08-27T10:42:14.798Z,25.60
2022-08-27T10:45:44.276Z,25.60
2022-08-27T10:49:05.210Z,25.60
2022-08-27T10:52:54.528Z,25.70
2022-08-27T10:55:52.013Z,25.40
2022-08-27T10:59:25.112Z,25.20
2022-08-27T11:02:40.050Z,25.20
2022-08-27T11:05:32.527Z,25.20
2022-08-27T11:08:41.160Z,25.40
2022-08-27T11:15:13.296Z,25.60
2022-08-27T11:18:06.462Z,25.80
2022-08-27T11:21:29.697Z,25.70
2022-08-27T11:24:54.530Z,25.60
2022-08-27T11:27:45.317Z,25.50
2022-08-27T11:30:35.556Z,25.60
2022-08-27T11:34:04.294Z,25.70
2022-08-27T11:37:23.294Z,25.60
2022-08-27T11:41:07.407Z,25.40
2022-08-27T11:43:55.836Z,25.20
2022-08-27T11:46:52.175Z,25.50
2022-08-27T11:49:51.093Z,25.60
2022-08-27T11:52:53.370Z,25.20
2022-08-27T11:55:41.082Z,24.90
2022-08-27T11:58:31.445Z,24.90
2022-08-27T12:01:31.836Z,25.20
2022-08-27T12:04:31.578Z,25.20
2022-08-27T12:07:19.213Z,25.00
2022-08-27T12:10:31.893Z,25.00
2022-08-27T12:13:53.336Z,25.40
2022-08-27T12:16:48.062Z,25.70
2022-08-27T12:20:04.319Z,25.50
2022-08-27T12:23:35.413Z,25.80
2022-08-27T12:26:25.777Z,26.00
2022-08-27T12:29:34.672Z,26.00
2022-08-27T12:32:44.952Z,26.40
2022-08-27T12:35:48.261Z,26.50
2022-08-27T12:38:50.445Z,26.50
2022-08-27T12:41:48.794Z,26.50
2022-08-27T12:44:36.342Z,26.50
2022-08-27T12:47:24.926Z,26.70
2022-08-27T12:50:13.417Z,26.80
2022-08-27T12:53:38.547Z,27.10
2022-08-27T12:56:53.112Z,27.00
2022-08-27T13:00:15.831Z,27.00
2022-08-27T13:03:41.204Z,26.90
2022-08-27T13:06:36.097Z,26.80
2022-08-27T13:09:32.657Z,26.90
2022-08-27T13:12:21.092Z,26.60
2022-08-27T13:15:14.473Z,26.70
2022-08-27T13:18:07.513Z,26.60
2022-08-27T13:21:22.117Z,26.90
2022-08-27T13:24:11.572Z,27.10
2022-08-27T13:27:00.491Z,27.10
2022-08-27T13:29:48.126Z,27.20
2022-08-27T13:32:39.068Z,27.20
2022-08-27T13:35:26.767Z,27.10
2022-08-27T13:38:16.652Z,27.30
2022-08-27T13:41:08.647Z,27.30
2022-08-27T13:43:59.529Z,27.30
2022-08-27T13:46:53.115Z,27.30
2022-08-27T13:49:41.231Z,27.20
2022-08-27T13:52:35.591Z,27.50
2022-08-27T13:55:23.472Z,27.30
2022-08-27T13:58:33.748Z,27.30
2022-08-27T14:01:33.018Z,27.30
2022-08-27T14:04:47.437Z,27.30
2022-08-27T14:07:42.052Z,27.30
2022-08-27T14:10:41.928Z,27.10
2022-08-27T14:13:39.484Z,27.10
2022-08-27T14:16:33.035Z,27.20
2022-08-27T14:19:36.993Z,27.10
2022-08-27T14:22:24.675Z,26.90
2022-08-27T14:25:13.397Z,26.70
2022-08-27T14:28:01.486Z,26.60
2022-08-27T14:30:53.261Z,26.80
2022-08-27T14:33:41.547Z,27.00
2022-08-27T14:36:32.181Z,26.70
2022-08-27T14:39:20.118Z,26.60
2022-08-27T14:42:12.507Z,26.90
2022-08-27T14:45:00.473Z,26.90
2022-08-27T14:47:48.078Z,27.10
2022-08-27T14:50:37.808Z,27.20
2022-08-27T14:53:27.033Z,27.10
2022-08-27T14:56:14.508Z,27.10
2022-08-27T14:59:02.018Z,27.30
2022-08-27T15:01:50.462Z,27.40
2022-08-27T15:04:38.415Z,27.40
2022-08-27T15:07:26.020Z,27.40
2022-08-27T15:10:16.959Z,27.50
2022-08-27T15:13:04.527Z,27.60
2022-08-27T15:15:52.411Z,27.60
2022-08-27T15:18:40.382Z,27.70
2022-08-27T15:21:30.448Z,27.80
2022-08-27T15:24:24.682Z,28.00
2022-08-27T15:27:12.399Z,27.80
2022-08-27T15:30:01.298Z,27.70
2022-08-27T15:32:49.077Z,27.80
2022-08-27T15:35:36.669Z,27.80
2022-08-27T15:38:24.272Z,27.80
2022-08-27T15:41:12.917Z,27.90
2022-08-27T15:44:00.537Z,27.80
2022-08-27T15:46:48.224Z,27.70
2022-08-27T15:49:35.792Z,27.70
2022-08-27T15:52:24.297Z,27.80
2022-08-27T15:55:23.087Z,27.90
2022-08-27T15:58:11.240Z,27.90
2022-08-27T16:01:11.436Z,27.80
2022-08-27T16:03:59.967Z,27.80
2022-08-27T16:06:49.437Z,27.90
2022-08-27T16:09:37.033Z,27.90
2022-08-27T16:12:27.359Z,27.90
2022-08-27T16:15:17.548Z,27.80
2022-08-27T16:18:05.454Z,27.80
2022-08-27T16:20:58.592Z,27.90
2022-08-27T16:23:46.777Z,27.80
2022-08-27T16:26:34.494Z,27.70
2022-08-27T16:29:22.049Z,27.60
2022-08-27T16:32:18.978Z,27.50
2022-08-27T16:35:08.825Z,27.30
2022-08-27T16:37:56.467Z,27.20
2022-08-27T16:40:51.312Z,27.20
2022-08-27T16:43:40.547Z,27.00
2022-08-27T16:46:28.166Z,26.90
2022-08-27T16:49:35.217Z,26.90
2022-08-27T16:52:23.605Z,26.70
2022-08-27T16:55:12.022Z,26.50
2022-08-27T16:58:00.017Z,26.30
2022-08-27T17:00:52.133Z,26.20
2022-08-27T17:04:08.458Z,26.10
2022-08-27T17:06:57.753Z,26.00
2022-08-27T17:09:45.923Z,25.80
2022-08-27T17:12:33.623Z,25.60
2022-08-27T17:15:21.276Z,25.60
2022-08-27T17:18:09.123Z,25.50
2022-08-27T17:20:59.777Z,25.40
2022-08-27T17:23:52.772Z,25.20
2022-08-27T17:26:40.730Z,25.10
2022-08-27T17:29:29.568Z,24.90
2022-08-27T17:32:18.298Z,24.80
2022-08-27T17:35:08.751Z,24.60
2022-08-27T17:37:56.307Z,24.50
2022-08-27T17:40:43.917Z,24.50
2022-08-27T17:43:32.107Z,24.30
2022-08-27T17:46:19.771Z,24.20
2022-08-27T17:49:07.337Z,24.00
2022-08-27T17:52:02.967Z,23.90
2022-08-27T17:54:56.705Z,23.70
2022-08-27T17:57:44.688Z,23.60
2022-08-27T18:00:32.743Z,23.50
2022-08-27T18:03:20.627Z,23.30
2022-08-27T18:06:08.597Z,23.20
2022-08-27T18:08:56.766Z,23.10
2022-08-27T18:11:46.587Z,23.00
2022-08-27T18:14:35.669Z,22.90
2022-08-27T18:17:23.134Z,22.80
2022-08-27T18:20:13.875Z,22.70
2022-08-27T18:23:01.666Z,22.50
2022-08-27T18:25:49.470Z,22.40
2022-08-27T18:28:37.233Z,22.40
2022-08-27T18:31:32.026Z,22.30
2022-08-27T18:34:21.093Z,22.20
2022-08-27T18:37:08.762Z,22.10
2022-08-27T18:39:56.340Z,22.10
2022-08-27T18:42:44.072Z,22.00
2022-08-27T18:45:33.300Z,21.90
2022-08-27T18:48:23.333Z,21.90
2022-08-27T18:51:16.317Z,21.80
2022-08-27T18:54:05.697Z,21.70
2022-08-27T18:56:53.986Z,21.70
2022-08-27T18:59:41.579Z,21.60
2022-08-27T19:02:33.891Z,21.60
2022-08-27T19:05:26.735Z,21.50
2022-08-27T19:08:15.245Z,21.50
2022-08-27T19:11:04.868Z,21.50
2022-08-27T19:13:52.382Z,21.50
2022-08-27T19:16:44.379Z,21.40
2022-08-27T19:19:32.082Z,21.30
2022-08-27T19:22:20.102Z,21.30
2022-08-27T19:25:08.332Z,21.30
2022-08-27T19:27:56.692Z,21.30
2022-08-27T19:30:45.249Z,21.20
2022-08-27T19:33:33.207Z,21.20
2022-08-27T19:36:23.570Z,21.20
2022-08-27T19:39:15.127Z,21.10
2022-08-27T19:42:04.712Z,21.10
2022-08-27T19:44:52.227Z,21.10
2022-08-27T19:47:41.287Z,21.10
2022-08-27T19:50:28.896Z,21.20
2022-08-27T19:53:16.576Z,21.20
2022-08-27T19:56:05.991Z,21.30
2022-08-27T19:58:57.321Z,21.30
2022-08-27T20:01:47.592Z,21.60
2022-08-27T20:04:47.660Z,21.70
2022-08-27T20:07:43.908Z,21.90
2022-08-27T20:10:36.530Z,21.90
2022-08-27T20:13:24.512Z,21.90
2022-08-27T20:16:13.431Z,21.90
2022-08-27T20:19:02.672Z,21.90
2022-08-27T20:21:51.072Z,21.90
2022-08-27T20:24:38.531Z,21.80
2022-08-27T20:27:26.927Z,21.70
2022-08-27T20:30:16.295Z,21.70
2022-08-27T20:33:03.841Z,21.60
2022-08-27T20:35:51.373Z,21.60
2022-08-27T20:38:39.721Z,21.50
2022-08-27T20:41:28.395Z,21.50
2022-08-27T20:44:17.131Z,21.40
2022-08-27T20:47:05.832Z,21.40
2022-08-27T20:49:53.431Z,21.30
2022-08-27T20:52:42.185Z,21.30
2022-08-27T20:55:30.077Z,21.30
2022-08-27T20:58:36.496Z,21.20
2022-08-27T21:01:24.071Z,21.20
2022-08-27T21:04:11.601Z,21.10
2022-08-27T21:06:59.107Z,21.00
2022-08-27T21:09:56.076Z,21.00
2022-08-27T21:12:45.281Z,20.90
2022-08-27T21:15:33.056Z,20.90
2022-08-27T21:18:20.694Z,20.90
2022-08-27T21:21:17.057Z,20.90
2022-08-27T21:24:04.787Z,20.80
2022-08-27T21:26:52.502Z,20.80
2022-08-27T21:29:41.511Z,20.70
2022-08-27T21:32:29.111Z,20.70
2022-08-27T21:35:17.271Z,20.60
2022-08-27T21:38:04.859Z,20.50
2022-08-27T21:40:52.432Z,20.50
2022-08-27T21:43:39.927Z,20.40
2022-08-27T21:46:27.474Z,20.30
2022-08-27T21:49:16.481Z,20.30
2022-08-27T21:52:06.834Z,20.20
2022-08-27T21:54:54.356Z,20.10
2022-08-27T21:57:41.916Z,20.10
2022-08-27T22:00:29.432Z,20.00
2022-08-27T22:03:21.667Z,20.00
2022-08-27T22:06:13.001Z,19.90
2022-08-27T22:09:00.973Z,19.90
2022-08-27T22:11:48.558Z,19.80
2022-08-27T22:14:36.937Z,19.80
2022-08-27T22:17:24.534Z,19.70
2022-08-27T22:20:12.356Z,19.70
2022-08-27T22:23:00.262Z,19.60
2022-08-27T22:25:49.149Z,19.60
2022-08-27T22:28:36.666Z,19.60
2022-08-27T22:31:24.295Z,19.60
2022-08-27T22:34:14.955Z,19.50
2022-08-27T22:37:04.832Z,19.50
2022-08-27T22:39:52.954Z,19.50
2022-08-27T22:42:40.476Z,19.50
2022-08-27T22:45:29.141Z,19.50
2022-08-27T22:48:16.752Z,19.40
2022-08-27T22:51:04.477Z,19.40
2022-08-27T22:53:52.027Z,19.40
2022-08-27T22:56:39.561Z,19.40
2022-08-27T22:59:27.112Z,19.50
2022-08-27T23:02:14.787Z,19.50
2022-08-27T23:05:06.306Z,19.50
2022-08-27T23:07:55.241Z,19.50
2022-08-27T23:10:44.278Z,19.50
2022-08-27T23:13:33.331Z,19.50
2022-08-27T23:16:21.526Z,19.50
2022-08-27T23:19:09.126Z,19.60
2022-08-27T23:21:58.357Z,19.50
2022-08-27T23:25:04.391Z,19.60
2022-08-27T23:27:51.943Z,19.60
2022-08-27T23:30:39.452Z,19.60
2022-08-27T23:33:27.016Z,19.60
2022-08-27T23:36:14.536Z,19.60
2022-08-27T23:39:02.376Z,19.60
2022-08-27T23:41:50.034Z,19.50
2022-08-27T23:44:37.841Z,19.40
2022-08-27T23:47:25.336Z,19.40
2022-08-27T23:50:13.416Z,19.40
2022-08-27T23:53:02.087Z,19.40
2022-08-27T23:55:49.551Z,19.40
2022-08-27T23:58:37.176Z,19.40
